Time;durP1;ratioP1;P1;durP2;ratioP2;P2;SDS_P1;SDS_P2;PMS_P1;PMS_P2;Temp;Humidity;BMP_temperature;BMP_pressure;BME280_temperature;BME280_humidity;BME280_pressure;Samples;Min_cycle;Max_cycle;Signal;HPM_P1;HPM_P2
2024/01/25 00:01:54;;;;;;;6.50;0.73;;;5.10;99.90;4.30;98800;;;;577776;244;24080;-79
2024/01/25 00:04:21;;;;;;;4.33;0.67;;;5.10;99.90;4.30;98792;;;;577867;244;24122;-80
2024/01/25 00:06:49;;;;;;;0.27;0.27;;;5.10;99.90;4.30;98777;;;;577890;244;24111;-77
2024/01/25 00:09:17;;;;;;;1.07;0.53;;;5.10;99.90;4.30;98802;;;;587402;244;24083;-78
2024/01/25 00:11:45;;;;;;;4.80;0.60;;;5.00;99.90;4.20;98811;;;;577985;244;24093;-80
2024/01/25 00:14:13;;;;;;;0.00;0.00;;;5.00;99.90;4.20;98809;;;;578709;244;24068;-76
2024/01/25 00:16:44;;;;;;;0.97;0.60;;;5.00;99.90;4.20;98808;;;;578160;244;24073;-77
2024/01/25 00:19:12;;;;;;;4.67;0.60;;;5.00;99.90;4.20;98801;;;;579038;243;24113;-78
2024/01/25 00:21:44;;;;;;;0.57;0.40;;;5.00;99.90;4.20;98815;;;;579832;244;24071;-77
2024/01/25 00:24:13;;;;;;;0.37;0.20;;;5.00;99.90;4.20;98821;;;;580464;244;24222;-77
2024/01/25 00:26:40;;;;;;;0.30;0.30;;;5.00;99.90;4.20;98799;;;;588654;244;24079;-78
2024/01/25 00:29:08;;;;;;;3.23;0.67;;;5.00;99.90;4.20;98811;;;;579503;244;24070;-80
2024/01/25 00:31:36;;;;;;;0.20;0.20;;;5.00;99.90;4.20;98824;;;;579675;244;24055;-79
2024/01/25 00:34:07;;;;;;;0.47;0.47;;;5.00;99.90;4.20;98819;;;;579081;244;24075;-77
2024/01/25 00:36:33;;;;;;;0.43;0.43;;;5.00;99.90;4.20;98827;;;;579329;244;24138;-76
2024/01/25 00:39:06;;;;;;;2.43;0.53;;;5.00;99.90;4.10;98812;;;;578888;244;24068;-79
2024/01/25 00:41:31;;;;;;;1.13;0.40;;;5.00;99.90;4.10;98812;;;;578742;244;24118;-79
2024/01/25 00:44:02;;;;;;;0.30;0.30;;;5.00;99.90;4.10;98812;;;;578905;244;24075;-79
2024/01/25 00:46:26;;;;;;;3.53;0.30;;;5.00;99.90;4.10;98820;;;;579087;244;24078;-78
2024/01/25 00:48:54;;;;;;;1.57;0.67;;;4.90;99.90;4.10;98834;;;;578558;244;24073;-77
2024/01/25 00:51:25;;;;;;;5.67;0.97;;;4.90;99.90;4.10;98819;;;;578815;244;24097;-77
2024/01/25 00:53:50;;;;;;;2.93;1.53;;;4.90;99.90;4.10;98825;;;;578907;244;24131;-79
2024/01/25 00:56:18;;;;;;;0.20;0.20;;;4.90;99.90;4.10;98819;;;;578482;244;24057;-79
2024/01/25 00:58:47;;;;;;;1.40;0.43;;;4.90;99.90;4.10;98827;;;;574579;244;24089;-78
2024/01/25 01:01:14;;;;;;;0.87;0.37;;;4.90;99.90;4.00;98828;;;;577893;244;24060;-79
2024/01/25 01:03:43;;;;;;;1.10;0.80;;;4.90;99.90;4.00;98847;;;;577754;244;24112;-78
2024/01/25 01:06:15;;;;;;;1.70;0.63;;;4.80;99.90;4.00;98845;;;;577933;244;24163;-78
2024/01/25 01:08:43;;;;;;;2.83;0.50;;;4.90;99.90;4.00;98852;;;;578005;244;24083;-78
2024/01/25 01:11:07;;;;;;;1.07;0.60;;;4.90;99.90;4.00;98845;;;;578351;244;24124;-78
2024/01/25 01:13:35;;;;;;;1.63;0.80;;;4.90;99.90;4.00;98848;;;;578752;244;24091;-79
2024/01/25 01:16:03;;;;;;;2.33;0.97;;;4.90;99.90;4.00;98854;;;;578595;244;24129;-77
2024/01/25 01:18:31;;;;;;;3.00;0.57;;;4.90;99.90;4.00;98851;;;;578512;244;24083;-78
2024/01/25 01:20:58;;;;;;;2.23;0.40;;;4.80;99.90;4.00;98856;;;;578714;244;24051;-78
2024/01/25 01:23:26;;;;;;;0.57;0.57;;;4.80;99.90;4.00;98851;;;;578802;244;24077;-79
2024/01/25 01:25:54;;;;;;;2.63;0.87;;;4.80;99.90;4.00;98847;;;;578678;244;24065;-78
2024/01/25 01:28:22;;;;;;;0.83;0.70;;;4.80;99.90;4.00;98841;;;;578442;244;24103;-78
2024/01/25 01:30:50;;;;;;;2.37;1.00;;;4.80;99.90;4.00;98837;;;;579047;243;24062;-80
2024/01/25 01:33:19;;;;;;;4.77;0.90;;;4.80;99.90;4.00;98849;;;;579863;244;24082;-78
2024/01/25 01:35:47;;;;;;;0.40;0.40;;;4.80;99.90;4.00;98849;;;;579735;244;24075;-78
2024/01/25 01:38:15;;;;;;;2.37;1.10;;;4.80;99.90;4.00;98858;;;;579610;244;24065;-79
2024/01/25 01:40:42;;;;;;;2.23;1.27;;;4.80;99.90;4.00;98854;;;;579454;244;24109;-75
2024/01/25 01:43:11;;;;;;;12.00;1.63;;;4.80;99.90;4.00;98863;;;;579046;244;24072;-78
2024/01/25 01:45:43;;;;;;;0.87;0.70;;;4.80;99.90;4.00;98866;;;;578061;244;24122;-77
2024/01/25 01:48:07;;;;;;;12.60;2.20;;;4.80;99.90;4.00;98854;;;;579495;244;24070;-79
2024/01/25 01:50:35;;;;;;;8.50;1.97;;;4.80;99.90;4.00;98865;;;;578794;244;24088;-80
2024/01/25 01:53:07;;;;;;;0.97;0.77;;;4.80;99.90;3.90;98864;;;;579133;244;24121;-79
2024/01/25 01:55:31;;;;;;;6.10;1.53;;;4.80;99.90;3.90;98873;;;;579830;243;24075;-78
2024/01/25 01:58:02;;;;;;;10.10;1.20;;;4.80;99.90;3.90;98855;;;;579289;244;24072;-77
2024/01/25 02:00:27;;;;;;;9.87;2.27;;;4.80;99.90;3.90;98865;;;;578760;244;24076;-76
2024/01/25 02:02:59;;;;;;;5.03;1.10;;;4.70;99.90;3.90;98863;;;;579435;244;24051;-78
2024/01/25 02:05:23;;;;;;;2.20;0.57;;;4.70;99.90;3.90;98861;;;;588908;244;24207;-78
2024/01/25 02:07:54;;;;;;;3.97;0.90;;;4.70;99.90;3.90;98851;;;;579291;244;24106;-78
2024/01/25 02:10:19;;;;;;;9.43;0.87;;;4.70;99.90;3.80;98863;;;;578370;244;24091;-77
2024/01/25 02:12:47;;;;;;;10.23;1.30;;;4.60;99.90;3.80;98864;;;;578131;244;24091;-78
2024/01/25 02:15:15;;;;;;;0.73;0.73;;;4.60;99.90;3.80;98861;;;;578865;244;24072;-79
2024/01/25 02:17:47;;;;;;;7.63;1.70;;;4.60;99.90;3.80;98848;;;;578084;244;24126;-76
2024/01/25 02:20:11;;;;;;;1.70;1.20;;;4.60;99.90;3.70;98863;;;;577715;244;24141;-78
2024/01/25 02:22:39;;;;;;;2.73;0.60;;;4.60;99.90;3.70;98855;;;;578254;244;24082;-77
2024/01/25 02:25:07;;;;;;;10.07;0.80;;;4.60;99.90;3.70;98863;;;;577850;244;24109;-77
2024/01/25 02:27:38;;;;;;;2.43;1.17;;;4.60;99.90;3.70;98863;;;;577689;244;24158;-76
2024/01/25 02:30:06;;;;;;;3.70;0.83;;;4.60;99.90;3.70;98880;;;;577823;244;24261;-76
2024/01/25 02:32:31;;;;;;;1.07;0.67;;;4.50;99.90;3.70;98865;;;;578257;244;24082;-78
2024/01/25 02:34:59;;;;;;;3.23;0.53;;;4.50;99.90;3.60;98873;;;;577882;244;24064;-77
2024/01/25 02:37:27;;;;;;;5.00;1.37;;;4.50;99.90;3.60;98886;;;;577694;244;24072;-77
2024/01/25 02:39:55;;;;;;;6.50;1.07;;;4.50;99.90;3.60;98874;;;;577559;244;24073;-77
2024/01/25 02:42:23;;;;;;;3.73;0.80;;;4.50;99.90;3.60;98873;;;;578108;243;24127;-77
2024/01/25 02:44:51;;;;;;;9.03;0.93;;;4.50;99.90;3.60;98882;;;;578934;244;24134;-76
2024/01/25 02:47:19;;;;;;;5.17;1.50;;;4.50;99.90;3.60;98879;;;;579161;244;24069;-77
2024/01/25 02:49:47;;;;;;;1.13;0.70;;;4.50;99.90;3.60;98875;;;;578975;244;24073;-78
2024/01/25 02:52:16;;;;;;;5.87;1.30;;;4.50;99.90;3.60;98886;;;;579061;244;24140;-78
2024/01/25 02:54:44;;;;;;;0.20;0.20;;;4.40;99.90;3.60;98897;;;;578951;244;24099;-79
2024/01/25 02:57:12;;;;;;;0.87;0.20;;;4.50;99.90;3.60;98888;;;;579021;244;24056;-79
2024/01/25 02:59:44;;;;;;;1.57;0.60;;;4.50;99.90;3.60;98886;;;;579128;244;24067;-80
2024/01/25 03:02:08;;;;;;;0.33;0.20;;;4.50;99.90;3.70;98880;;;;579138;244;24081;-80
2024/01/25 03:04:36;;;;;;;4.00;1.07;;;4.50;99.90;3.70;98898;;;;578480;244;24063;-80
2024/01/25 03:07:06;;;;;;;4.23;1.30;;;4.50;99.90;3.70;98889;;;;578268;244;24099;-80
2024/01/25 03:09:33;;;;;;;11.27;1.50;;;4.50;99.90;3.70;98884;;;;578182;244;24136;-80
2024/01/25 03:12:01;;;;;;;2.57;0.37;;;4.50;99.90;3.70;98902;;;;578133;244;24078;-79
2024/01/25 03:14:32;;;;;;;1.87;0.70;;;4.50;99.90;3.70;98897;;;;578220;244;24065;-79
2024/01/25 03:17:01;;;;;;;0.83;0.63;;;4.50;99.90;3.70;98902;;;;578103;244;25136;-78
2024/01/25 03:19:26;;;;;;;4.80;1.77;;;4.50;99.90;3.70;98930;;;;586725;244;25147;-79
2024/01/25 03:21:58;;;;;;;2.20;0.73;;;4.50;99.90;3.70;98924;;;;583502;244;24056;-76
2024/01/25 03:24:22;;;;;;;0.30;0.20;;;4.50;99.90;3.70;98926;;;;577809;244;24069;-76
2024/01/25 03:26:50;;;;;;;0.83;0.50;;;4.50;99.90;3.70;98941;;;;577866;244;24072;-77
2024/01/25 03:29:18;;;;;;;2.80;0.73;;;4.50;99.90;3.70;98942;;;;578049;244;24054;-78
2024/01/25 03:31:49;;;;;;;3.03;1.53;;;4.50;99.90;3.70;98930;;;;577624;244;24156;-79
2024/01/25 03:34:14;;;;;;;0.50;0.50;;;4.50;99.90;3.70;98936;;;;577532;244;24223;-80
2024/01/25 03:36:42;;;;;;;5.13;0.47;;;4.50;99.90;3.70;98920;;;;577618;244;24080;-77
2024/01/25 03:39:11;;;;;;;1.93;0.70;;;4.60;99.90;3.70;98946;;;;577781;244;24081;-77
2024/01/25 03:41:38;;;;;;;0.67;0.67;;;4.50;99.90;3.70;98946;;;;577691;244;24133;-78
2024/01/25 03:44:06;;;;;;;3.20;1.43;;;4.60;99.90;3.70;98954;;;;577655;244;24088;-77
2024/01/25 03:46:34;;;;;;;2.10;0.70;;;4.60;99.90;3.70;98946;;;;577754;244;24071;-77
2024/01/25 03:49:03;;;;;;;0.57;0.57;;;4.60;99.90;3.70;98946;;;;577654;244;24117;-78
2024/01/25 03:51:31;;;;;;;0.83;0.70;;;4.60;99.90;3.70;98959;;;;577808;244;24144;-77
2024/01/25 03:53:59;;;;;;;4.93;0.50;;;4.60;99.90;3.70;98954;;;;578381;243;24074;-76
2024/01/25 03:56:27;;;;;;;7.23;1.77;;;4.60;99.90;3.80;98961;;;;579440;244;25154;-76
2024/01/25 03:58:54;;;;;;;1.50;0.57;;;4.60;99.90;3.80;98987;;;;578967;244;24075;-76
2024/01/25 04:01:22;;;;;;;0.60;0.30;;;4.60;99.90;3.80;98986;;;;578859;244;24079;-78
2024/01/25 04:03:50;;;;;;;9.03;2.00;;;4.60;99.90;3.70;98989;;;;578489;244;24060;-76
2024/01/25 04:06:19;;;;;;;3.80;0.37;;;4.60;99.90;3.70;98983;;;;578193;244;25127;-77
2024/01/25 04:08:46;;;;;;;0.53;0.53;;;4.60;99.90;3.70;98978;;;;578045;244;24100;-76
2024/01/25 04:11:15;;;;;;;5.10;0.90;;;4.60;99.90;3.70;98983;;;;578131;244;24051;-76
2024/01/25 04:13:43;;;;;;;1.17;0.73;;;4.60;99.90;3.70;98971;;;;577841;244;24081;-76
2024/01/25 04:16:10;;;;;;;6.30;0.80;;;4.60;99.90;3.70;98972;;;;577995;244;24065;-76
2024/01/25 04:18:38;;;;;;;1.27;0.80;;;4.60;99.90;3.70;98968;;;;577692;244;24068;-76
2024/01/25 04:21:06;;;;;;;3.80;0.47;;;4.60;99.90;3.70;98985;;;;578010;244;24088;-75
2024/01/25 04:23:34;;;;;;;0.37;0.37;;;4.50;99.90;3.80;98988;;;;578192;244;24065;-76
2024/01/25 04:26:03;;;;;;;3.30;0.50;;;4.60;99.90;3.80;98981;;;;578284;244;24097;-76
2024/01/25 04:28:31;;;;;;;1.20;0.77;;;4.60;99.90;3.80;98987;;;;577973;244;24061;-75
2024/01/25 04:30:59;;;;;;;0.93;0.83;;;4.60;99.90;3.80;98991;;;;577706;244;24087;-76
2024/01/25 04:33:27;;;;;;;3.00;1.17;;;4.60;99.90;3.80;99003;;;;586921;244;24093;-76
2024/01/25 04:35:55;;;;;;;2.50;0.90;;;4.60;99.90;3.80;99014;;;;577580;244;24129;-76
2024/01/25 04:38:23;;;;;;;1.93;1.40;;;4.70;99.90;3.80;99011;;;;577513;244;25104;-76
2024/01/25 04:40:51;;;;;;;2.17;0.87;;;4.60;99.90;3.80;99018;;;;577614;244;24063;-76
2024/01/25 04:43:20;;;;;;;1.27;0.17;;;4.70;99.90;3.80;99028;;;;577591;244;24106;-77
2024/01/25 04:45:48;;;;;;;1.33;0.33;;;4.60;99.90;3.80;99020;;;;577685;244;24124;-78
2024/01/25 04:48:15;;;;;;;2.70;0.47;;;4.60;99.90;3.80;99036;;;;577662;244;24084;-76
2024/01/25 04:50:43;;;;;;;5.00;1.53;;;4.60;99.90;3.80;99047;;;;577754;244;24160;-77
2024/01/25 04:53:11;;;;;;;3.60;0.57;;;4.60;99.90;3.80;99047;;;;578016;244;24053;-76
2024/01/25 04:55:39;;;;;;;7.07;0.87;;;4.60;99.90;3.80;99042;;;;577996;244;24080;-76
2024/01/25 04:58:07;;;;;;;1.60;0.70;;;4.60;99.90;3.80;99051;;;;578090;244;24151;-77
2024/01/25 05:00:36;;;;;;;1.27;0.60;;;4.60;99.90;3.70;99061;;;;577617;244;24135;-76
2024/01/25 05:03:03;;;;;;;0.63;0.63;;;4.60;99.90;3.70;99053;;;;577755;244;24095;-77
2024/01/25 05:05:34;;;;;;;1.97;0.60;;;4.60;99.90;3.70;99062;;;;577927;243;25110;-76
2024/01/25 05:08:02;;;;;;;11.23;1.10;;;4.60;99.90;3.70;99068;;;;578755;244;24085;-77
2024/01/25 05:10:27;;;;;;;2.00;1.17;;;4.60;99.90;3.70;99065;;;;578844;244;26212;-79
2024/01/25 05:12:54;;;;;;;5.07;1.37;;;4.60;99.90;3.70;99080;;;;573363;244;46050;-77
2024/01/25 05:15:22;;;;;;;10.30;1.57;;;4.60;99.90;3.70;99080;;;;578462;244;26270;-79
2024/01/25 05:17:50;;;;;;;2.57;0.90;;;4.60;99.90;3.70;99095;;;;578262;244;24073;-79
2024/01/25 05:20:18;;;;;;;2.90;0.77;;;4.60;99.90;3.70;99101;;;;578397;244;24105;-80
2024/01/25 05:22:46;;;;;;;0.40;0.40;;;4.60;99.90;3.70;99102;;;;578646;244;24061;-79
2024/01/25 05:25:14;;;;;;;6.70;0.77;;;4.60;99.90;3.70;99100;;;;578454;244;24053;-75
2024/01/25 05:27:42;;;;;;;0.83;0.77;;;4.60;99.90;3.80;99097;;;;577968;244;24112;-76
2024/01/25 05:30:13;;;;;;;5.93;0.80;;;4.60;99.90;3.80;99100;;;;577890;244;24096;-76
2024/01/25 05:32:38;;;;;;;0.47;0.40;;;4.60;99.90;3.80;99117;;;;578047;244;24133;-76
2024/01/25 05:35:05;;;;;;;0.70;0.57;;;4.60;99.90;3.80;99123;;;;577817;244;24076;-76
2024/01/25 05:37:34;;;;;;;1.70;0.70;;;4.60;99.90;3.80;99120;;;;577759;244;24072;-77
2024/01/25 05:40:02;;;;;;;4.87;1.10;;;4.60;99.90;3.80;99121;;;;577936;244;24142;-76
2024/01/25 05:42:30;;;;;;;3.00;1.13;;;4.60;99.90;3.80;99121;;;;577721;244;24102;-76
2024/01/25 05:44:58;;;;;;;0.30;0.30;;;4.60;99.90;3.80;99120;;;;577709;244;24118;-77
2024/01/25 05:47:26;;;;;;;3.67;0.70;;;4.60;99.90;3.80;99126;;;;577581;244;24079;-77
2024/01/25 05:49:55;;;;;;;3.97;0.87;;;4.60;99.90;3.80;99133;;;;577792;244;24167;-76
2024/01/25 05:52:23;;;;;;;1.37;0.17;;;4.60;99.90;3.80;99151;;;;577638;244;24076;-75
2024/01/25 05:54:51;;;;;;;2.20;0.30;;;4.60;99.90;3.80;99140;;;;578252;244;24085;-76
2024/01/25 05:57:20;;;;;;;1.93;0.70;;;4.60;99.90;3.80;99139;;;;578189;244;24070;-79
2024/01/25 05:59:47;;;;;;;1.23;0.77;;;4.70;99.90;3.80;99146;;;;578185;244;24073;-77
2024/01/25 06:02:15;;;;;;;1.63;0.80;;;4.60;99.90;3.80;99156;;;;577990;244;24054;-77
2024/01/25 06:04:43;;;;;;;4.77;1.17;;;4.70;99.90;3.80;99157;;;;578062;244;24090;-77
2024/01/25 06:07:11;;;;;;;1.17;0.53;;;4.70;99.90;3.90;99158;;;;577773;244;24094;-76
2024/01/25 06:09:39;;;;;;;0.60;0.40;;;4.70;99.90;3.90;99166;;;;577665;244;24142;-77
2024/01/25 06:12:07;;;;;;;7.87;0.97;;;4.70;99.90;3.90;99188;;;;577529;244;24094;-77
2024/01/25 06:14:35;;;;;;;1.33;0.80;;;4.70;99.90;3.90;99187;;;;577712;244;24068;-77
2024/01/25 06:17:03;;;;;;;6.63;1.17;;;4.70;99.90;3.90;99182;;;;577934;242;24082;-78
2024/01/25 06:19:33;;;;;;;0.83;0.37;;;4.70;99.90;3.90;99185;;;;579132;244;24138;-76
2024/01/25 06:21:59;;;;;;;0.30;0.30;;;4.70;99.90;3.90;99202;;;;578589;244;24068;-76
2024/01/25 06:24:28;;;;;;;0.70;0.47;;;4.80;99.90;3.90;99208;;;;578812;244;24084;-77
2024/01/25 06:26:56;;;;;;;4.13;1.17;;;4.70;99.90;3.90;99203;;;;578547;244;24086;-77
2024/01/25 06:29:24;;;;;;;3.53;1.07;;;4.80;99.90;3.90;99212;;;;578136;244;25139;-78
2024/01/25 06:31:52;;;;;;;1.73;0.60;;;4.80;99.90;3.90;99223;;;;578328;244;24109;-78
2024/01/25 06:34:20;;;;;;;1.67;1.03;;;4.80;99.90;3.90;99223;;;;578186;244;24093;-80
2024/01/25 06:36:48;;;;;;;1.63;1.00;;;4.80;99.90;3.90;99224;;;;577863;244;24082;-79
2024/01/25 06:39:16;;;;;;;1.17;0.70;;;4.80;99.90;3.90;99224;;;;578139;244;24100;-79
2024/01/25 06:41:44;;;;;;;0.43;0.43;;;4.80;99.90;3.90;99236;;;;578080;244;24064;-80
2024/01/25 06:44:12;;;;;;;0.50;0.50;;;4.80;99.90;3.90;99266;;;;578326;244;24076;-81
2024/01/25 06:46:40;;;;;;;4.80;1.13;;;4.80;99.90;3.90;99261;;;;578013;244;24085;-80
2024/01/25 06:49:08;;;;;;;6.47;1.20;;;4.80;99.90;3.90;99273;;;;578163;244;24087;-79
2024/01/25 06:51:36;;;;;;;3.20;0.83;;;4.80;99.90;3.90;99279;;;;578018;244;24085;-80
2024/01/25 06:54:04;;;;;;;1.63;0.97;;;4.80;99.90;3.90;99288;;;;578147;244;24061;-77
2024/01/25 06:56:34;;;;;;;3.43;0.83;;;4.80;99.90;4.00;99292;;;;577987;244;24059;-76
2024/01/25 06:59:00;;;;;;;14.63;1.53;;;4.80;99.90;4.00;99313;;;;577980;244;24070;-77
2024/01/25 07:01:30;;;;;;;0.50;0.50;;;4.80;99.90;3.90;99313;;;;578076;244;24080;-77
2024/01/25 07:03:57;;;;;;;1.33;0.30;;;4.80;99.90;4.00;99326;;;;578029;244;24079;-77
2024/01/25 07:06:26;;;;;;;7.73;0.93;;;4.80;99.90;4.00;99334;;;;578046;244;24065;-77
2024/01/25 07:08:53;;;;;;;5.83;1.20;;;4.80;99.90;4.00;99328;;;;577702;244;24141;-79
2024/01/25 07:11:23;;;;;;;3.43;0.67;;;4.80;99.90;4.00;99338;;;;577664;244;24106;-78
2024/01/25 07:13:48;;;;;;;1.67;1.23;;;4.90;99.90;4.00;99346;;;;577659;244;24167;-78
2024/01/25 07:16:16;;;;;;;3.87;1.13;;;4.90;99.90;4.00;99355;;;;577532;244;24106;-76
2024/01/25 07:18:44;;;;;;;3.73;0.80;;;4.90;99.90;4.00;99368;;;;577769;244;24102;-76
2024/01/25 07:21:12;;;;;;;1.50;0.70;;;4.90;99.90;4.00;99374;;;;577833;244;24074;-77
2024/01/25 07:23:41;;;;;;;2.00;0.60;;;4.90;99.90;4.00;99379;;;;577603;244;24112;-75
2024/01/25 07:26:08;;;;;;;3.30;1.10;;;4.80;99.90;4.00;99399;;;;578018;244;24092;-76
2024/01/25 07:28:36;;;;;;;0.90;0.90;;;4.80;99.90;3.70;99403;;;;577934;242;24107;-76
2024/01/25 07:31:05;;;;;;;0.73;0.60;;;4.70;99.90;3.50;99416;;;;579098;244;24068;-76
2024/01/25 07:33:32;;;;;;;0.70;0.70;;;4.50;99.90;3.40;99423;;;;578575;244;24082;-76
2024/01/25 07:36:01;;;;;;;0.80;0.80;;;4.20;99.90;3.20;99418;;;;578325;244;24166;-77
2024/01/25 07:38:29;;;;;;;0.40;0.40;;;4.10;99.90;3.10;99430;;;;578208;244;24089;-77
2024/01/25 07:40:57;;;;;;;0.40;0.40;;;3.90;99.90;3.10;99428;;;;578118;244;24053;-77
2024/01/25 07:43:25;;;;;;;0.90;0.55;;;3.90;99.90;2.90;99437;;;;573226;244;35000;-77
2024/01/25 07:45:53;;;;;;;0.90;0.43;;;3.90;99.90;2.90;99455;;;;578128;244;24068;-77
2024/01/25 07:48:21;;;;;;;0.30;0.30;;;3.80;99.90;2.80;99459;;;;578091;244;24060;-79
2024/01/25 07:50:49;;;;;;;0.20;0.20;;;3.70;99.90;2.80;99467;;;;577903;244;24126;-78
2024/01/25 07:53:18;;;;;;;1.10;0.30;;;3.70;99.90;2.80;99470;;;;577844;244;24086;-78
2024/01/25 07:55:46;;;;;;;0.20;0.20;;;3.60;99.90;2.70;99486;;;;577943;244;24078;-78
2024/01/25 07:58:13;;;;;;;0.30;0.30;;;3.60;99.90;2.70;99485;;;;578280;244;25103;-78
2024/01/25 08:00:42;;;;;;;0.30;0.30;;;3.70;99.90;2.70;99494;;;;578285;244;24073;-79
2024/01/25 08:03:09;;;;;;;0.30;0.30;;;3.60;99.90;2.70;99505;;;;578259;244;24078;-78
2024/01/25 08:05:38;;;;;;;0.60;0.60;;;3.60;99.90;2.70;99523;;;;578165;244;24062;-78
2024/01/25 08:08:09;;;;;;;0.87;0.80;;;3.60;99.90;2.70;99523;;;;578035;244;24053;-78
2024/01/25 08:10:34;;;;;;;1.03;0.60;;;3.60;99.90;2.70;99519;;;;578370;244;24075;-78
2024/01/25 08:13:02;;;;;;;0.43;0.43;;;3.60;99.90;2.60;99540;;;;577801;244;24083;-79
2024/01/25 08:15:31;;;;;;;0.20;0.20;;;3.50;99.90;2.60;99541;;;;577754;244;24116;-79
2024/01/25 08:17:59;;;;;;;0.30;0.30;;;3.50;99.90;2.50;99544;;;;577811;244;24121;-78
2024/01/25 08:20:27;;;;;;;0.70;0.70;;;3.40;99.90;2.40;99555;;;;577769;244;24112;-78
2024/01/25 08:22:55;;;;;;;0.30;0.30;;;3.30;99.90;2.40;99567;;;;577686;244;24083;-78
2024/01/25 08:25:23;;;;;;;0.27;0.27;;;3.30;99.90;2.30;99579;;;;577796;244;24070;-78
2024/01/25 08:27:51;;;;;;;0.10;0.10;;;3.20;99.90;2.30;99586;;;;577706;244;24133;-79
2024/01/25 08:30:19;;;;;;;0.60;0.40;;;3.20;99.90;2.20;99594;;;;578175;244;24074;-79
2024/01/25 08:32:48;;;;;;;0.60;0.40;;;3.00;99.90;2.10;99598;;;;578134;244;24073;-78
2024/01/25 08:35:16;;;;;;;0.20;0.20;;;3.00;99.90;2.00;99605;;;;578191;244;24074;-79
2024/01/25 08:37:44;;;;;;;0.83;0.53;;;2.90;99.90;1.90;99606;;;;578142;244;24069;-80
2024/01/25 08:40:12;;;;;;;0.87;0.53;;;2.80;99.90;1.90;99613;;;;577853;242;24157;-78
2024/01/25 08:42:39;;;;;;;0.67;0.67;;;2.80;99.90;1.90;99633;;;;579169;244;24059;-76
2024/01/25 08:45:08;;;;;;;0.50;0.50;;;2.80;99.90;1.90;99629;;;;578657;244;24106;-78
2024/01/25 08:47:38;;;;;;;0.33;0.33;;;2.80;99.90;1.90;99644;;;;578640;244;24064;-80
2024/01/25 08:50:07;;;;;;;0.50;0.50;;;2.80;99.90;1.90;99646;;;;578579;244;24067;-77
2024/01/25 08:52:31;;;;;;;2.60;0.80;;;2.80;99.90;1.80;99651;;;;574785;244;24125;-78
2024/01/25 08:54:59;;;;;;;0.40;0.40;;;2.80;99.90;1.80;99664;;;;578333;244;24068;-77
2024/01/25 08:57:27;;;;;;;1.77;0.53;;;2.70;99.90;1.80;99665;;;;578161;244;24057;-78
2024/01/25 08:59:55;;;;;;;7.93;0.90;;;2.70;99.90;1.70;99670;;;;578441;244;24056;-77
2024/01/25 09:02:26;;;;;;;1.07;0.97;;;2.70;99.90;1.70;99681;;;;578454;244;24071;-78
2024/01/25 09:04:51;;;;;;;3.93;1.13;;;2.60;99.90;1.70;99690;;;;578239;244;24099;-78
2024/01/25 09:07:19;;;;;;;1.20;0.90;;;2.60;99.90;1.70;99687;;;;578218;244;24087;-78
2024/01/25 09:09:46;;;;;;;0.73;0.70;;;2.60;99.90;1.70;99690;;;;578263;244;24050;-78
2024/01/25 09:12:17;;;;;;;3.60;1.07;;;2.60;99.90;1.70;99698;;;;578023;244;24099;-77
2024/01/25 09:14:42;;;;;;;0.50;0.50;;;2.60;99.90;1.70;99708;;;;577871;244;24108;-78
2024/01/25 09:17:11;;;;;;;0.97;0.53;;;2.60;99.90;1.70;99715;;;;577925;244;24071;-78
2024/01/25 09:19:39;;;;;;;1.63;0.93;;;2.60;99.90;1.90;99705;;;;577673;244;24112;-80
2024/01/25 09:22:07;;;;;;;0.40;0.40;;;2.70;99.90;2.10;99716;;;;577605;244;24073;-77
2024/01/25 09:24:36;;;;;;;0.50;0.50;;;2.90;99.90;2.30;99719;;;;583135;243;24086;-77
2024/01/25 09:27:02;;;;;;;4.37;0.90;;;3.10;99.90;2.40;99725;;;;577578;244;24116;-77
2024/01/25 09:29:30;;;;;;;1.00;0.77;;;3.30;99.90;2.70;99723;;;;578559;244;24064;-78
2024/01/25 09:31:58;;;;;;;0.73;0.40;;;3.50;99.90;2.80;99738;;;;577649;244;24092;-77
2024/01/25 09:34:26;;;;;;;1.37;0.50;;;3.70;99.90;2.90;99738;;;;578011;244;24066;-78
2024/01/25 09:36:54;;;;;;;0.53;0.53;;;3.80;99.90;2.90;99741;;;;577596;244;24099;-77
2024/01/25 09:39:22;;;;;;;0.40;0.40;;;3.80;99.90;3.00;99755;;;;577501;244;24112;-78
2024/01/25 09:41:50;;;;;;;0.47;0.47;;;3.90;99.90;2.90;99743;;;;577574;244;24131;-78
2024/01/25 09:44:18;;;;;;;1.00;0.77;;;3.80;99.90;2.80;99749;;;;577570;244;24087;-78
2024/01/25 09:46:46;;;;;;;0.47;0.43;;;3.60;99.90;2.60;99762;;;;577747;244;24219;-78
2024/01/25 09:49:14;;;;;;;0.63;0.53;;;3.60;99.90;2.40;99752;;;;577665;244;24074;-79
2024/01/25 09:51:42;;;;;;;0.87;0.70;;;3.50;99.90;2.40;99762;;;;577752;242;24114;-78
2024/01/25 09:54:13;;;;;;;0.50;0.50;;;3.30;99.90;2.20;99755;;;;579036;244;24088;-78
2024/01/25 09:56:38;;;;;;;0.63;0.63;;;3.20;99.90;2.20;99749;;;;587823;244;24108;-78
2024/01/25 09:59:06;;;;;;;1.17;0.90;;;3.20;99.90;2.10;99758;;;;578461;244;24079;-77
2024/01/25 10:01:34;;;;;;;0.60;0.60;;;3.10;99.90;2.10;99755;;;;578678;244;24118;-78
2024/01/25 10:04:02;;;;;;;0.63;0.63;;;3.10;99.90;2.10;99766;;;;578555;244;24057;-78
2024/01/25 10:06:30;;;;;;;1.13;0.50;;;3.00;99.90;2.20;99767;;;;578608;244;24056;-78
2024/01/25 10:08:57;;;;;;;1.07;0.60;;;3.10;99.90;2.30;99774;;;;578638;244;24112;-78
2024/01/25 10:11:28;;;;;;;1.67;0.60;;;3.20;99.90;2.50;99774;;;;578279;244;24084;-78
2024/01/25 10:13:56;;;;;;;0.20;0.20;;;3.40;99.90;2.60;99789;;;;577878;244;24138;-78
2024/01/25 10:16:21;;;;;;;0.83;0.70;;;3.50;99.90;2.70;99800;;;;578012;244;24113;-78
2024/01/25 10:18:52;;;;;;;0.43;0.43;;;3.60;99.90;2.80;99791;;;;577923;244;24064;-79
2024/01/25 10:21:17;;;;;;;0.50;0.50;;;3.70;99.90;2.80;99812;;;;577639;244;24072;-79
2024/01/25 10:23:50;;;;;;;0.37;0.37;;;3.70;99.90;2.80;99812;;;;578005;244;24057;-78
2024/01/25 10:26:13;;;;;;;1.10;0.50;;;3.80;99.90;2.90;99824;;;;577830;244;24131;-77
2024/01/25 10:28:41;;;;;;;0.07;0.07;;;3.80;99.90;2.80;99827;;;;583575;244;24064;-78
2024/01/25 10:31:09;;;;;;;3.00;0.87;;;3.80;99.90;2.90;99839;;;;577584;244;24105;-79
2024/01/25 10:33:36;;;;;;;1.23;0.83;;;3.80;99.90;2.90;99840;;;;577522;244;24100;-78
2024/01/25 10:36:04;;;;;;;0.40;0.40;;;3.80;99.90;2.80;99829;;;;577589;244;24087;-78
2024/01/25 10:38:36;;;;;;;2.83;0.80;;;3.70;99.90;2.80;99831;;;;577512;244;24104;-78
2024/01/25 10:41:01;;;;;;;2.47;0.67;;;3.70;99.90;2.80;99834;;;;577997;244;24081;-77
2024/01/25 10:43:30;;;;;;;0.30;0.30;;;3.70;99.90;2.70;99826;;;;578004;244;24090;-78
2024/01/25 10:46:07;;;;;;;;;;;;;;;;;;;;;
2024/01/25 10:48:32;;;;;;;0.37;0.37;;;3.40;99.90;2.50;99843;;;;574918;247;24124;-77
2024/01/25 10:50:58;;;;;;;0.50;0.50;;;3.40;99.90;2.50;99847;;;;575207;244;24138;-78
2024/01/25 10:53:26;;;;;;;0.60;0.60;;;3.40;99.90;2.50;99849;;;;576262;242;24073;-77
2024/01/25 10:55:57;;;;;;;0.60;0.60;;;3.40;99.90;2.50;99857;;;;578686;245;24136;-78
2024/01/25 10:58:22;;;;;;;1.53;1.00;;;3.40;99.90;2.70;99855;;;;571749;249;24165;-77
2024/01/25 11:00:53;;;;;;;0.60;0.60;;;3.60;99.90;3.00;99865;;;;561508;252;24108;-81
2024/01/25 11:03:21;;;;;;;0.50;0.50;;;3.90;99.90;3.30;99869;;;;566130;250;24086;-79
2024/01/25 11:05:49;;;;;;;0.80;0.80;;;4.20;99.90;3.50;99882;;;;587551;241;24068;-77
2024/01/25 11:08:23;;;;;;;0.47;0.47;;;4.40;99.90;3.40;99875;;;;575788;248;24159;-79
2024/01/25 11:10:54;;;;;;;0.50;0.50;;;4.40;99.90;3.20;99877;;;;573430;246;24040;-80
2024/01/25 11:13:25;;;;;;;0.47;0.47;;;4.20;99.90;3.10;99889;;;;571483;249;24144;-81
2024/01/25 11:15:53;;;;;;;1.40;0.47;;;4.20;99.90;3.30;99902;;;;575870;244;24081;-75
2024/01/25 11:18:21;;;;;;;0.83;0.83;;;4.40;99.90;3.40;99888;;;;567948;251;24237;-77
2024/01/25 11:20:49;;;;;;;0.63;0.63;;;4.40;99.90;3.40;99904;;;;568105;249;24103;-80
2024/01/25 11:23:18;;;;;;;0.60;0.60;;;4.40;99.90;3.30;99907;;;;579826;247;24056;-75
2024/01/25 11:25:46;;;;;;;0.40;0.40;;;4.30;99.90;3.10;99911;;;;568545;249;24087;-79
2024/01/25 11:28:16;;;;;;;0.47;0.47;;;4.00;99.90;2.90;99915;;;;567936;249;24182;-77
2024/01/25 11:30:42;;;;;;;0.40;0.40;;;4.00;99.90;3.00;99920;;;;568190;249;24121;-78
2024/01/25 11:33:15;;;;;;;0.70;0.60;;;4.20;99.90;3.30;99927;;;;568185;249;24089;-76
2024/01/25 11:35:41;;;;;;;2.53;1.00;;;4.20;99.90;3.60;99937;;;;567687;249;24051;-76
2024/01/25 11:38:08;;;;;;;0.70;0.70;;;4.70;99.90;3.80;99941;;;;568175;249;24068;-78